Time;durP1;ratioP1;P1;durP2;ratioP2;P2;SDS_P1;SDS_P2;PMS_P1;PMS_P2;Temp;Humidity;BMP_temperature;BMP_pressure;BME280_temperature;BME280_humidity;BME280_pressure;Samples;Min_cycle;Max_cycle;Signal;HPM_P1;HPM_P2
2024/04/18 00:00:36;;;;;;;15.20;10.93;;;5.30;99.90;;;;;;5245493;27;20221;-68
2024/04/18 00:03:01;;;;;;;15.63;11.50;;;5.30;99.90;;;;;;5242849;27;20336;-68
2024/04/18 00:05:30;;;;;;;17.20;11.50;;;5.30;99.90;;;;;;5245765;27;20224;-67
2024/04/18 00:07:56;;;;;;;16.10;11.70;;;5.20;99.90;;;;;;5243753;27;20981;-68
2024/04/18 00:10:21;;;;;;;14.30;10.50;;;5.20;99.90;;;;;;5242749;27;20453;-69
2024/04/18 00:12:47;;;;;;;16.10;10.90;;;5.20;99.90;;;;;;5213277;27;20241;-69
2024/04/18 00:15:24;;;;;;;17.10;10.77;;;5.20;99.90;;;;;;5239958;27;20274;-68
2024/04/18 00:17:56;;;;;;;20.40;12.07;;;5.10;99.90;;;;;;5245339;27;20531;-69
2024/04/18 00:20:22;;;;;;;15.03;12.03;;;5.10;99.90;;;;;;5246927;27;20472;-67
2024/04/18 00:22:47;;;;;;;13.93;10.70;;;5.20;99.90;;;;;;5247908;27;20521;-68
2024/04/18 00:25:13;;;;;;;14.17;10.63;;;5.10;99.90;;;;;;5246964;27;20533;-69
2024/04/18 00:27:51;;;;;;;17.50;13.40;;;5.00;99.90;;;;;;5246292;27;20273;-68
2024/04/18 00:30:40;;;;;;;16.23;11.70;;;5.10;99.90;;;;;;5248390;27;20505;-68
2024/04/18 00:33:05;;;;;;;17.10;11.53;;;5.10;99.90;;;;;;5247689;27;20569;-68
2024/04/18 00:35:40;;;;;;;16.23;11.13;;;5.00;99.90;;;;;;5245715;27;20511;-69
2024/04/18 00:38:15;;;;;;;17.17;11.93;;;5.10;99.90;;;;;;5239672;27;20471;-68
2024/04/18 00:40:42;;;;;;;17.33;11.13;;;5.10;99.90;;;;;;5247511;27;20468;-68
2024/04/18 00:43:20;;;;;;;15.10;12.53;;;5.00;99.90;;;;;;5247340;27;20468;-70
2024/04/18 00:45:53;;;;;;;19.00;12.50;;;5.00;99.90;;;;;;5247967;27;20721;-69
2024/04/18 00:48:21;;;;;;;18.40;13.23;;;5.00;99.90;;;;;;5248158;27;20523;-69
2024/04/18 00:50:47;;;;;;;15.87;11.80;;;5.00;99.90;;;;;;5246477;27;21086;-67
2024/04/18 00:53:24;;;;;;;14.10;10.87;;;5.00;99.90;;;;;;5216690;27;20493;-69
2024/04/18 00:55:51;;;;;;;15.27;10.77;;;5.00;99.90;;;;;;5247778;27;20533;-69
2024/04/18 00:58:17;;;;;;;18.20;12.00;;;4.90;99.90;;;;;;5250215;27;20564;-68
2024/04/18 01:00:45;;;;;;;14.60;11.70;;;5.00;99.90;;;;;;5223213;27;20520;-69
2024/04/18 01:03:29;;;;;;;21.53;12.17;;;5.00;99.90;;;;;;5250043;27;20256;-69
2024/04/18 01:06:09;;;;;;;16.00;11.83;;;5.00;99.90;;;;;;5249770;27;20563;-67
2024/04/18 01:08:54;;;;;;;17.77;11.70;;;5.10;99.90;;;;;;5250005;27;20520;-68
2024/04/18 01:11:29;;;;;;;16.53;11.87;;;5.10;99.90;;;;;;5245770;27;20524;-68
2024/04/18 01:13:55;;;;;;;20.67;13.47;;;5.20;99.90;;;;;;5244406;27;20476;-68
2024/04/18 01:16:21;;;;;;;19.60;12.40;;;5.20;99.90;;;;;;5215972;27;20535;-67
2024/04/18 01:18:47;;;;;;;17.50;12.40;;;5.30;99.90;;;;;;5243000;27;20237;-68
2024/04/18 01:21:15;;;;;;;18.27;12.40;;;5.30;99.90;;;;;;5245941;27;20225;-68
2024/04/18 01:23:41;;;;;;;19.07;13.10;;;5.30;99.90;;;;;;5245806;27;20508;-68
2024/04/18 01:26:12;;;;;;;18.50;13.73;;;5.30;99.90;;;;;;5242406;27;20741;-68
2024/04/18 01:28:37;;;;;;;18.93;12.97;;;5.30;99.90;;;;;;5243354;27;20271;-68
2024/04/18 01:31:03;;;;;;;20.10;12.67;;;5.30;99.90;;;;;;5240855;27;20468;-68
2024/04/18 01:33:28;;;;;;;20.13;14.60;;;5.30;99.90;;;;;;5241345;27;20332;-69
2024/04/18 01:35:54;;;;;;;19.30;12.90;;;5.30;99.90;;;;;;5244942;27;20624;-70
2024/04/18 01:38:20;;;;;;;19.80;13.20;;;5.30;99.90;;;;;;5246668;27;20624;-68
2024/04/18 01:40:45;;;;;;;18.37;12.63;;;5.30;99.90;;;;;;5246320;27;20221;-68
2024/04/18 01:43:29;;;;;;;15.60;11.93;;;5.30;99.90;;;;;;5244327;27;20259;-68
2024/04/18 01:46:18;;;;;;;17.70;13.00;;;5.30;99.90;;;;;;5248761;27;20581;-68
2024/04/18 01:49:10;;;;;;;18.80;12.07;;;5.30;99.90;;;;;;5245974;27;20533;-70
2024/04/18 01:51:50;;;;;;;16.43;12.53;;;5.40;99.90;;;;;;5244333;27;20535;-68
2024/04/18 01:54:34;;;;;;;17.40;12.40;;;5.40;99.90;;;;;;5244479;27;20460;-68
2024/04/18 01:57:00;;;;;;;16.40;12.60;;;5.30;99.90;;;;;;5243865;27;20488;-68
2024/04/18 01:59:46;;;;;;;19.23;12.57;;;5.30;99.90;;;;;;5243707;27;20553;-68
2024/04/18 02:02:11;;;;;;;15.23;11.40;;;5.30;99.90;;;;;;5244196;27;20477;-69
2024/04/18 02:04:57;;;;;;;19.20;13.00;;;5.30;99.90;;;;;;5236257;27;20356;-69
2024/04/18 02:07:42;;;;;;;20.70;13.83;;;5.20;99.90;;;;;;5238910;27;20484;-68
2024/04/18 02:10:07;;;;;;;18.67;13.50;;;5.20;99.90;;;;;;5242992;27;20907;-68
2024/04/18 02:12:56;;;;;;;20.30;12.13;;;5.10;99.90;;;;;;5247252;27;20503;-68
2024/04/18 02:15:41;;;;;;;20.97;13.57;;;4.90;99.90;;;;;;5240985;27;20529;-69
2024/04/18 02:18:13;;;;;;;19.23;13.00;;;4.80;99.90;;;;;;5246705;27;20480;-69
2024/04/18 02:20:41;;;;;;;23.73;13.50;;;4.70;99.90;;;;;;5243304;27;20464;-69
2024/04/18 02:23:22;;;;;;;21.30;14.50;;;4.70;99.90;;;;;;5246033;27;21005;-68
2024/04/18 02:25:49;;;;;;;23.97;16.00;;;4.50;99.90;;;;;;5247221;27;20481;-69
2024/04/18 02:28:15;;;;;;;24.03;15.93;;;4.50;99.90;;;;;;5248567;27;20525;-68
2024/04/18 02:30:40;;;;;;;23.27;13.33;;;4.40;99.90;;;;;;5249619;27;20464;-68
2024/04/18 02:33:12;;;;;;;19.53;13.97;;;4.40;99.90;;;;;;5247837;27;20292;-68
2024/04/18 02:35:47;;;;;;;28.90;17.40;;;4.30;99.90;;;;;;5242241;27;20473;-69
2024/04/18 02:38:32;;;;;;;25.30;16.30;;;4.30;99.90;;;;;;5240640;27;20532;-69
2024/04/18 02:41:05;;;;;;;24.90;16.30;;;4.30;99.90;;;;;;5245119;27;20461;-69
2024/04/18 02:43:53;;;;;;;31.97;16.60;;;4.30;99.90;;;;;;5246196;27;20293;-69
2024/04/18 02:46:20;;;;;;;26.80;17.77;;;4.40;99.90;;;;;;5243109;27;20576;-69
2024/04/18 02:49:04;;;;;;;27.30;17.07;;;4.30;99.90;;;;;;5246023;27;20521;-68
2024/04/18 02:51:30;;;;;;;29.33;16.13;;;4.40;99.90;;;;;;5247038;27;20461;-68
2024/04/18 02:54:11;;;;;;;28.33;16.63;;;4.50;99.90;;;;;;5241981;27;20344;-68
2024/04/18 02:56:37;;;;;;;24.73;15.37;;;4.40;99.90;;;;;;5245808;27;20759;-68
2024/04/18 02:59:11;;;;;;;27.67;16.97;;;4.50;99.90;;;;;;5242142;27;20224;-67
2024/04/18 03:01:46;;;;;;;23.20;15.40;;;4.60;99.90;;;;;;5246334;27;20759;-68
2024/04/18 03:04:12;;;;;;;29.10;17.37;;;4.70;99.90;;;;;;5250951;27;20475;-68
2024/04/18 03:06:38;;;;;;;30.53;17.87;;;4.60;99.90;;;;;;5243180;27;20468;-68
2024/04/18 03:09:11;;;;;;;32.43;20.50;;;4.60;99.90;;;;;;5246953;27;20494;-69
2024/04/18 03:11:52;;;;;;;27.67;17.73;;;4.50;99.90;;;;;;5244443;27;20476;-69
2024/04/18 03:14:17;;;;;;;27.37;17.87;;;4.50;99.90;;;;;;5241894;27;20923;-67
2024/04/18 03:17:03;;;;;;;27.50;17.10;;;4.40;99.90;;;;;;5236938;27;20930;-68
2024/04/18 03:19:48;;;;;;;33.23;18.23;;;4.40;99.90;;;;;;5242843;27;20464;-69
2024/04/18 03:22:26;;;;;;;37.53;22.33;;;4.30;99.90;;;;;;5244694;27;20460;-68
2024/04/18 03:24:58;;;;;;;37.63;22.90;;;4.30;99.90;;;;;;5243488;27;20555;-69
2024/04/18 03:27:30;;;;;;;36.67;20.80;;;4.40;99.90;;;;;;5242478;27;20472;-68
2024/04/18 03:29:56;;;;;;;38.97;22.27;;;4.40;99.90;;;;;;5243436;27;20472;-70
2024/04/18 03:32:36;;;;;;;37.10;20.20;;;4.60;99.90;;;;;;5244568;27;20468;-68
2024/04/18 03:35:03;;;;;;;37.93;21.23;;;4.60;99.90;;;;;;5241610;27;20468;-68
2024/04/18 03:37:29;;;;;;;36.70;22.37;;;4.60;99.90;;;;;;5243060;27;20476;-69
2024/04/18 03:39:57;;;;;;;32.27;21.10;;;4.70;99.90;;;;;;5243797;27;20986;-69
2024/04/18 03:42:23;;;;;;;33.97;19.37;;;4.70;99.90;;;;;;5244502;27;20236;-67
2024/04/18 03:44:52;;;;;;;33.60;21.23;;;4.80;99.90;;;;;;5242718;27;20576;-68
2024/04/18 03:47:17;;;;;;;30.33;19.20;;;4.80;99.90;;;;;;5202625;27;20589;-69
2024/04/18 03:50:02;;;;;;;28.97;19.40;;;4.90;99.90;;;;;;5225762;27;20507;-69
2024/04/18 03:52:38;;;;;;;32.50;21.50;;;4.90;99.90;;;;;;5243508;27;20532;-69
2024/04/18 03:55:35;;;;;;;31.43;19.50;;;5.00;99.90;;;;;;5240659;27;20523;-69
2024/04/18 03:58:01;;;;;;;31.33;19.93;;;5.00;99.90;;;;;;5246152;27;20830;-70
2024/04/18 04:00:56;;;;;;;33.67;19.67;;;5.00;99.90;;;;;;5233263;27;20264;-68
2024/04/18 04:03:21;;;;;;;29.80;19.60;;;5.00;99.90;;;;;;5243164;27;20740;-69
2024/04/18 04:05:47;;;;;;;35.90;22.57;;;5.00;99.90;;;;;;5249210;27;20263;-69
2024/04/18 04:08:12;;;;;;;31.90;19.17;;;5.00;99.90;;;;;;5242253;27;20244;-69
2024/04/18 04:10:39;;;;;;;38.67;21.83;;;5.00;99.90;;;;;;5243249;27;20256;-68
2024/04/18 04:13:04;;;;;;;33.87;20.00;;;5.10;99.90;;;;;;5242654;27;20241;-69
2024/04/18 04:15:47;;;;;;;37.83;22.77;;;5.10;99.90;;;;;;5233918;27;20946;-68
2024/04/18 04:18:33;;;;;;;29.90;20.43;;;5.10;99.90;;;;;;5239205;27;20472;-68
2024/04/18 04:21:19;;;;;;;29.40;19.70;;;5.20;99.90;;;;;;5217103;27;20466;-70
2024/04/18 04:23:44;;;;;;;29.83;19.80;;;5.10;99.90;;;;;;5229371;27;20721;-70
2024/04/18 04:26:10;;;;;;;35.23;21.43;;;5.10;99.90;;;;;;5213314;27;20545;-68
2024/04/18 04:28:35;;;;;;;27.20;19.87;;;5.20;99.90;;;;;;5209072;27;20335;-68
2024/04/18 04:31:01;;;;;;;31.57;19.60;;;5.20;99.90;;;;;;5212927;27;20230;-70
2024/04/18 04:33:28;;;;;;;28.97;17.77;;;5.20;99.90;;;;;;5230234;27;20908;-69
2024/04/18 04:35:53;;;;;;;33.30;19.10;;;5.10;99.90;;;;;;5212998;27;20226;-69
2024/04/18 04:38:19;;;;;;;34.97;21.00;;;5.10;99.90;;;;;;5225454;27;20774;-72
2024/04/18 04:40:44;;;;;;;31.60;20.70;;;5.20;99.90;;;;;;5247264;27;20225;-71
2024/04/18 04:43:10;;;;;;;29.17;19.97;;;5.30;99.90;;;;;;5217815;27;20302;-70
2024/04/18 04:45:37;;;;;;;31.53;18.97;;;5.20;99.90;;;;;;5238537;27;20271;-71
2024/04/18 04:48:06;;;;;;;28.20;18.63;;;5.20;99.90;;;;;;5216949;27;20913;-72
2024/04/18 04:50:31;;;;;;;26.97;17.43;;;5.20;99.90;;;;;;5219422;27;20522;-71
2024/04/18 04:53:12;;;;;;;26.97;18.00;;;5.20;99.90;;;;;;5233692;27;20462;-69
2024/04/18 04:55:57;;;;;;;25.83;16.53;;;5.20;99.90;;;;;;5239230;27;20513;-70
2024/04/18 04:58:23;;;;;;;25.80;17.50;;;5.20;99.90;;;;;;5223162;27;20661;-70
2024/04/18 05:00:49;;;;;;;23.73;16.80;;;5.20;99.90;;;;;;5235530;27;20468;-71
2024/04/18 05:03:34;;;;;;;23.27;16.80;;;5.20;99.90;;;;;;5206896;27;20225;-75
2024/04/18 05:06:21;;;;;;;24.53;16.23;;;5.20;99.90;;;;;;5230502;27;20525;-71
2024/04/18 05:09:08;;;;;;;24.63;17.10;;;5.20;99.90;;;;;;5227880;27;20740;-70
2024/04/18 05:11:33;;;;;;;23.80;16.43;;;5.30;99.90;;;;;;5232917;27;20815;-69
2024/04/18 05:13:59;;;;;;;23.60;16.60;;;5.30;99.90;;;;;;5224113;27;20477;-69
2024/04/18 05:16:44;;;;;;;25.83;15.77;;;5.30;99.90;;;;;;5245198;27;20224;-70
2024/04/18 05:19:10;;;;;;;23.73;16.47;;;5.30;99.90;;;;;;5250060;27;20533;-72
2024/04/18 05:21:36;;;;;;;25.70;16.97;;;5.40;99.90;;;;;;5204702;27;20375;-73
2024/04/18 05:24:21;;;;;;;23.20;15.53;;;5.30;99.90;;;;;;5223611;27;20252;-73
2024/04/18 05:26:46;;;;;;;22.73;15.97;;;5.40;99.90;;;;;;5248622;27;20472;-75
2024/04/18 05:31:59;;;;;;;23.57;14.90;;;5.50;99.90;;;;;;5248767;27;20228;-72
2024/04/18 05:34:25;;;;;;;18.73;13.53;;;5.50;99.90;;;;;;5207530;27;20484;-70
2024/04/18 05:36:51;;;;;;;17.47;13.40;;;5.40;99.90;;;;;;5205438;27;20514;-70
2024/04/18 05:39:17;;;;;;;20.00;14.40;;;5.50;99.90;;;;;;5219931;27;20546;-74
2024/04/18 05:41:42;;;;;;;19.60;13.63;;;5.50;99.90;;;;;;5223142;27;20267;-71
2024/04/18 05:44:26;;;;;;;22.10;13.30;;;5.50;99.90;;;;;;5251362;27;20332;-71
2024/04/18 05:46:52;;;;;;;22.37;14.90;;;5.60;99.90;;;;;;5223772;27;20970;-71
2024/04/18 05:49:21;;;;;;;23.30;13.97;;;5.70;99.90;;;;;;5246966;27;20226;-73
2024/04/18 05:51:46;;;;;;;22.33;14.60;;;5.70;99.90;;;;;;5214072;27;20660;-74
2024/04/18 05:54:29;;;;;;;18.63;13.90;;;5.80;99.90;;;;;;5247255;27;20463;-71
2024/04/18 05:57:04;;;;;;;15.77;12.97;;;5.90;99.90;;;;;;5244632;27;20776;-72
2024/04/18 05:59:50;;;;;;;17.37;13.63;;;6.10;99.90;;;;;;5249994;27;20899;-70
2024/04/18 06:02:15;;;;;;;15.60;11.77;;;6.30;99.90;;;;;;5252992;27;20509;-72
2024/04/18 06:04:41;;;;;;;20.70;12.03;;;6.50;99.90;;;;;;5222094;27;20477;-75
2024/04/18 06:07:30;;;;;;;17.10;12.00;;;6.60;99.90;;;;;;5250284;27;20711;-73
2024/04/18 06:09:56;;;;;;;15.27;12.63;;;6.70;99.90;;;;;;5217739;27;20541;-71
2024/04/18 06:12:21;;;;;;;14.20;11.07;;;6.60;99.90;;;;;;5255055;27;20787;-72
2024/04/18 06:14:48;;;;;;;17.87;12.00;;;6.50;99.90;;;;;;5222152;27;20468;-72
2024/04/18 06:17:14;;;;;;;16.27;10.17;;;6.40;99.90;;;;;;5255100;27;20229;-69
2024/04/18 06:19:52;;;;;;;16.17;11.57;;;6.30;99.90;;;;;;5258438;27;20451;-72
2024/04/18 06:22:30;;;;;;;14.37;11.10;;;6.30;99.90;;;;;;5211552;27;20464;-72
2024/04/18 06:25:18;;;;;;;16.47;10.07;;;6.30;99.90;;;;;;5255940;27;20646;-72
2024/04/18 06:27:44;;;;;;;11.20;8.80;;;6.40;99.90;;;;;;5227707;27;20581;-71
2024/04/18 06:30:11;;;;;;;12.87;10.20;;;6.50;99.90;;;;;;5252481;27;20472;-75
2024/04/18 06:32:37;;;;;;;11.90;8.77;;;6.70;99.90;;;;;;5220833;27;20473;-72
2024/04/18 06:35:03;;;;;;;12.00;9.37;;;6.90;99.90;;;;;;5223784;27;20887;-72
2024/04/18 06:37:29;;;;;;;15.27;9.70;;;7.00;99.90;;;;;;5255011;27;20899;-72
2024/04/18 06:39:55;;;;;;;12.77;9.03;;;7.10;99.90;;;;;;5252882;27;20456;-75
2024/04/18 06:42:20;;;;;;;11.57;8.53;;;7.10;99.90;;;;;;5254866;27;20225;-74
2024/04/18 06:44:46;;;;;;;12.83;9.33;;;7.20;99.90;;;;;;5255353;27;20272;-75
2024/04/18 06:47:11;;;;;;;10.67;7.87;;;7.30;99.90;;;;;;5207161;27;20574;-71
2024/04/18 06:49:37;;;;;;;11.90;8.50;;;7.40;99.90;;;;;;5221658;27;20225;-71
2024/04/18 06:52:03;;;;;;;22.40;8.60;;;7.50;99.90;;;;;;5212129;27;20230;-72
2024/04/18 06:54:29;;;;;;;10.17;6.77;;;7.80;99.90;;;;;;5251413;27;20288;-72
2024/04/18 06:56:54;;;;;;;8.87;5.57;;;7.90;99.90;;;;;;5252866;27;20504;-72
2024/04/18 06:59:21;;;;;;;12.00;6.23;;;8.00;99.90;;;;;;5217295;27;20225;-72
2024/04/18 07:01:47;;;;;;;10.13;6.13;;;7.80;99.90;;;;;;5202759;27;20644;-73
2024/04/18 07:04:13;;;;;;;9.07;5.97;;;7.80;99.90;;;;;;5251123;27;20521;-71
2024/04/18 07:06:59;;;;;;;8.10;5.77;;;7.70;99.90;;;;;;5250687;27;20480;-74
2024/04/18 07:09:36;;;;;;;10.00;6.13;;;7.70;99.90;;;;;;5254661;27;20496;-70
2024/04/18 07:12:16;;;;;;;5.70;4.60;;;7.60;99.90;;;;;;5224885;27;20480;-75
2024/04/18 07:14:42;;;;;;;7.53;6.07;;;7.60;99.90;;;;;;5237661;27;20470;-74
2024/04/18 07:17:10;;;;;;;10.03;5.57;;;7.60;99.90;;;;;;5196623;27;20229;-71
2024/04/18 07:19:35;;;;;;;6.90;5.40;;;7.50;99.90;;;;;;5203235;27;20820;-72
2024/04/18 07:22:01;;;;;;;6.47;4.83;;;7.60;99.90;;;;;;5237411;27;20224;-75
2024/04/18 07:24:49;;;;;;;11.33;5.47;;;7.80;99.90;;;;;;5254523;27;20204;-76
2024/04/18 07:27:15;;;;;;;10.00;5.43;;;7.90;99.90;;;;;;5185075;27;20476;-75
2024/04/18 07:29:40;;;;;;;8.60;4.30;;;8.10;99.90;;;;;;5244412;27;20517;-72
2024/04/18 07:32:07;;;;;;;7.70;4.80;;;8.20;99.90;;;;;;5224081;27;20218;-74
2024/04/18 07:34:33;;;;;;;9.50;4.90;;;8.20;99.90;;;;;;5197830;27;20257;-76
2024/04/18 07:36:59;;;;;;;13.73;5.40;;;8.10;99.90;;;;;;5174322;27;20478;-76
2024/04/18 07:39:25;;;;;;;10.60;4.60;;;8.00;99.90;;;;;;5196523;27;20496;-72
2024/04/18 07:41:51;;;;;;;8.53;5.07;;;8.00;99.90;;;;;;5189389;27;20218;-74
2024/04/18 07:44:16;;;;;;;10.73;5.63;;;8.00;99.90;;;;;;5200182;27;20470;-75
2024/04/18 07:46:44;;;;;;;7.40;5.13;;;8.10;99.90;;;;;;5210364;27;20502;-77
2024/04/18 07:49:10;;;;;;;9.20;4.83;;;8.10;99.90;;;;;;5198402;27;20276;-72
2024/04/18 07:51:37;;;;;;;7.03;4.37;;;8.10;99.90;;;;;;5202503;27;20551;-74
2024/04/18 07:54:02;;;;;;;6.00;4.07;;;8.30;99.90;;;;;;5217807;27;20469;-71
2024/04/18 07:56:28;;;;;;;8.53;4.27;;;8.50;99.90;;;;;;5216831;27;20577;-73
2024/04/18 07:58:54;;;;;;;7.17;4.23;;;8.70;99.90;;;;;;5233214;27;20225;-73
2024/04/18 08:01:19;;;;;;;10.10;4.33;;;8.90;99.90;;;;;;5231227;27;20264;-72
2024/04/18 08:03:45;;;;;;;10.73;4.40;;;9.00;99.90;;;;;;5196160;27;20225;-72
2024/04/18 08:06:11;;;;;;;8.00;3.60;;;9.20;99.90;;;;;;5253302;27;20642;-71
2024/04/18 08:08:36;;;;;;;6.83;3.40;;;9.20;99.90;;;;;;5215891;27;20327;-73
2024/04/18 08:11:03;;;;;;;11.10;4.20;;;9.30;99.90;;;;;;5160781;27;20219;-72
2024/04/18 08:13:29;;;;;;;9.57;4.20;;;9.40;99.90;;;;;;5225701;27;20462;-71
2024/04/18 08:15:55;;;;;;;9.00;4.10;;;9.50;99.90;;;;;;5220240;27;20593;-72
2024/04/18 08:18:21;;;;;;;8.30;4.77;;;9.60;99.90;;;;;;5219553;27;20269;-72
2024/04/18 08:20:47;;;;;;;7.03;4.47;;;9.60;99.90;;;;;;5220527;27;20256;-72
2024/04/18 08:23:19;;;;;;;7.67;4.63;;;9.50;99.90;;;;;;5174907;27;20468;-75
2024/04/18 08:25:46;;;;;;;9.73;4.73;;;9.50;99.90;;;;;;5200299;27;20269;-78
2024/04/18 08:28:12;;;;;;;9.50;3.57;;;9.60;99.90;;;;;;5167664;27;20473;-77
2024/04/18 08:30:38;;;;;;;5.00;3.00;;;9.70;99.90;;;;;;5163078;27;20514;-74
2024/04/18 08:33:03;;;;;;;6.57;3.10;;;9.60;99.90;;;;;;5168245;27;20240;-74
2024/04/18 08:35:29;;;;;;;4.70;3.00;;;9.50;99.90;;;;;;5175862;27;20253;-74
2024/04/18 08:37:55;;;;;;;9.60;3.27;;;9.30;99.90;;;;;;5132751;27;20316;-73
2024/04/18 08:40:20;;;;;;;8.13;3.30;;;9.20;99.90;;;;;;5206147;27;20221;-74
2024/04/18 08:42:46;;;;;;;7.13;2.50;;;9.10;99.90;;;;;;5183424;27;20226;-74
2024/04/18 08:45:13;;;;;;;12.17;3.67;;;9.20;99.90;;;;;;5220739;27;20715;-74
2024/04/18 08:47:39;;;;;;;7.20;2.67;;;9.30;99.90;;;;;;5221488;27;20341;-74
2024/04/18 08:50:07;;;;;;;7.90;2.77;;;9.60;99.90;;;;;;5162639;27;20507;-72
2024/04/18 08:52:36;;;;;;;4.37;2.97;;;9.90;99.90;;;;;;5194035;27;20526;-73
2024/04/18 08:55:01;;;;;;;6.83;3.20;;;10.10;99.90;;;;;;5219476;27;20458;-75
2024/04/18 08:57:29;;;;;;;6.60;2.77;;;10.20;99.90;;;;;;5192550;27;20525;-74
2024/04/18 09:00:00;;;;;;;8.80;2.60;;;10.30;99.90;;;;;;5192306;27;20260;-72
2024/04/18 09:02:29;;;;;;;4.93;1.87;;;10.50;99.90;;;;;;5138845;27;20686;-75
2024/04/18 09:04:57;;;;;;;8.97;2.73;;;10.80;99.90;;;;;;5192622;27;20497;-74
2024/04/18 09:07:23;;;;;;;5.90;2.13;;;11.00;99.90;;;;;;5175593;27;20594;-75
2024/04/18 09:09:53;;;;;;;5.73;2.60;;;11.20;98.20;;;;;;5190020;27;20883;-75
2024/04/18 09:12:19;;;;;;;9.90;2.90;;;11.40;96.40;;;;;;5179436;27;20297;-77
2024/04/18 09:14:44;;;;;;;10.80;2.77;;;11.50;94.70;;;;;;5210503;27;20569;-74
2024/04/18 09:17:14;;;;;;;8.03;2.50;;;11.60;94.30;;;;;;5241032;27;20521;-75
2024/04/18 09:19:39;;;;;;;4.87;2.27;;;11.50;93.20;;;;;;5244818;27;20490;-73
2024/04/18 09:22:05;;;;;;;5.80;1.80;;;11.50;92.50;;;;;;5215751;27;20476;-75
2024/04/18 09:24:30;;;;;;;6.63;2.27;;;11.50;92.40;;;;;;5226969;27;20229;-74
2024/04/18 09:26:58;;;;;;;5.87;1.90;;;11.50;92.10;;;;;;5254036;27;20229;-74
2024/04/18 09:29:23;;;;;;;6.47;1.40;;;11.70;90.70;;;;;;5191265;27;20291;-77
2024/04/18 09:31:50;;;;;;;5.10;1.80;;;11.60;88.70;;;;;;5255641;27;20469;-75
2024/04/18 09:34:17;;;;;;;5.97;2.07;;;11.50;90.20;;;;;;5231258;27;20596;-75
2024/04/18 09:36:44;;;;;;;9.20;1.87;;;11.50;89.70;;;;;;5231651;27;20468;-76
2024/04/18 09:39:15;;;;;;;7.50;2.13;;;11.40;89.60;;;;;;5254763;27;20528;-75
2024/04/18 09:41:46;;;;;;;10.93;2.50;;;11.40;88.60;;;;;;5233632;27;20468;-75
2024/04/18 09:44:21;;;;;;;4.47;1.57;;;11.30;87.70;;;;;;5254592;27;20488;-77
2024/04/18 09:46:50;;;;;;;5.73;1.50;;;11.20;89.50;;;;;;5226511;27;20615;-75
2024/04/18 09:49:21;;;;;;;2.20;1.73;;;11.10;87.80;;;;;;5255877;27;20539;-74
2024/04/18 09:51:48;;;;;;;6.97;2.10;;;10.80;85.90;;;;;;5255167;27;20449;-75
2024/04/18 09:54:15;;;;;;;10.70;1.90;;;10.60;87.80;;;;;;5199128;27;20931;-77
2024/04/18 09:56:42;;;;;;;6.63;3.10;;;10.60;89.50;;;;;;5236971;27;20472;-75
2024/04/18 09:59:09;;;;;;;3.07;1.63;;;10.70;88.60;;;;;;5205806;27;20493;-75
2024/04/18 10:01:37;;;;;;;3.37;1.50;;;10.90;88.70;;;;;;5233849;27;20460;-75
2024/04/18 10:04:02;;;;;;;5.45;2.40;;;11.30;87.40;;;;;;5234786;27;20364;-78
2024/04/18 10:06:36;;;;;;;6.83;2.00;;;11.60;86.70;;;;;;5228488;27;20385;-74
2024/04/18 10:09:05;;;;;;;8.57;2.70;;;11.90;84.50;;;;;;5257756;27;20228;-73
2024/04/18 10:11:32;;;;;;;11.37;2.50;;;12.00;83.20;;;;;;5228624;27;20505;-73
2024/04/18 10:14:02;;;;;;;6.83;2.10;;;12.00;82.00;;;;;;5224955;27;20604;-75
2024/04/18 10:16:29;;;;;;;5.37;2.23;;;11.80;82.60;;;;;;5239650;27;20536;-75
2024/04/18 10:18:55;;;;;;;5.53;2.27;;;11.70;81.60;;;;;;5226469;27;20535;-73
2024/04/18 10:21:20;;;;;;;7.07;2.70;;;11.70;80.40;;;;;;5226970;27;20483;-74
2024/04/18 10:23:47;;;;;;;13.63;3.30;;;11.60;81.20;;;;;;5219210;27;20273;-75
2024/04/18 10:26:14;;;;;;;7.03;2.30;;;11.60;80.30;;;;;;5257156;27;20632;-75
2024/04/18 10:28:40;;;;;;;8.73;2.53;;;11.60;80.40;;;;;;5258687;27;20513;-75
2024/04/18 10:31:06;;;;;;;6.60;2.90;;;11.50;79.60;;;;;;5188432;27;20533;-77
2024/04/18 10:33:35;;;;;;;4.40;2.07;;;11.50;78.10;;;;;;5226945;27;20454;-76
2024/04/18 10:36:00;;;;;;;3.47;1.77;;;11.30;79.70;;;;;;5246633;27;20225;-76
2024/04/18 10:38:27;;;;;;;5.63;2.47;;;11.40;80.40;;;;;;5256897;27;20444;-73
2024/04/18 10:41:03;;;;;;;6.10;3.27;;;11.40;79.10;;;;;;5230753;27;20214;-76
2024/04/18 10:43:31;;;;;;;7.13;2.40;;;11.60;79.20;;;;;;5232368;27;20473;-76
2024/04/18 10:46:00;;;;;;;6.33;2.93;;;11.70;79.00;;;;;;5253998;27;20617;-78
2024/04/18 10:48:26;;;;;;;6.47;2.90;;;11.90;78.90;;;;;;5261615;27;20465;-74
2024/04/18 10:50:52;;;;;;;6.07;3.13;;;12.10;78.40;;;;;;5207297;27;20509;-76
2024/04/18 10:53:19;;;;;;;7.13;2.90;;;12.20;77.20;;;;;;5231795;27;20604;-74
2024/04/18 10:55:45;;;;;;;6.47;3.80;;;12.20;77.50;;;;;;5261044;27;20445;-76
2024/04/18 10:58:12;;;;;;;5.23;2.87;;;12.20;74.60;;;;;;5261134;27;20469;-73
2024/04/18 11:00:44;;;;;;;8.17;3.90;;;12.10;76.40;;;;;;5263269;27;20464;-75
2024/04/18 11:03:11;;;;;;;5.77;3.23;;;12.10;75.50;;;;;;5260318;27;20460;-74
2024/04/18 11:05:43;;;;;;;7.93;4.07;;;12.20;75.20;;;;;;5256550;27;20460;-75
2024/04/18 11:08:18;;;;;;;6.70;3.43;;;12.20;74.00;;;;;;5225038;27;20469;-75
2024/04/18 11:10:45;;;;;;;4.27;2.83;;;12.20;72.40;;;;;;5171759;27;20781;-76
2024/04/18 11:13:13;;;;;;;9.20;3.07;;;12.00;72.40;;;;;;5205040;27;20226;-75
2024/04/18 11:15:40;;;;;;;7.00;4.00;;;12.00;69.30;;;;;;5181132;27;20537;-74
2024/04/18 11:18:06;;;;;;;3.60;2.30;;;11.80;71.60;;;;;;5228422;27;20475;-76
2024/04/18 11:20:32;;;;;;;4.17;2.40;;;11.90;68.90;;;;;;5172863;27;20513;-75
2024/04/18 11:22:58;;;;;;;2.47;1.87;;;12.00;67.20;;;;;;5227453;27;20210;-75
2024/04/18 11:25:24;;;;;;;5.13;2.60;;;12.10;67.50;;;;;;5171990;27;20510;-77
2024/04/18 11:28:08;;;;;;;4.77;2.50;;;12.50;68.10;;;;;;5203194;27;20470;-74
2024/04/18 11:30:41;;;;;;;3.50;2.33;;;12.70;67.80;;;;;;5193360;27;20555;-76
2024/04/18 11:33:11;;;;;;;6.60;2.53;;;12.90;66.90;;;;;;5172121;27;20521;-76
2024/04/18 11:35:36;;;;;;;5.23;2.60;;;13.30;65.00;;;;;;5225192;27;20487;-75
2024/04/18 11:38:09;;;;;;;9.20;4.57;;;13.50;62.10;;;;;;5197977;27;20523;-77
2024/04/18 11:40:34;;;;;;;5.10;2.37;;;13.30;60.80;;;;;;5227892;27;20444;-77
2024/04/18 11:43:00;;;;;;;4.87;2.23;;;13.30;61.20;;;;;;5201715;27;20474;-75
2024/04/18 11:45:26;;;;;;;4.47;1.60;;;13.50;59.00;;;;;;5180022;27;20227;-77
2024/04/18 11:47:56;;;;;;;5.27;2.00;;;13.60;57.60;;;;;;5216000;27;20260;-75
2024/04/18 11:50:22;;;;;;;3.73;1.70;;;13.50;56.10;;;;;;5194652;27;20391;-75
2024/04/18 11:52:48;;;;;;;3.67;1.30;;;13.70;56.20;;;;;;5208607;27;20498;-73
2024/04/18 11:55:28;;;;;;;6.40;1.87;;;13.60;55.20;;;;;;5218121;27;20317;-76
2024/04/18 11:57:53;;;;;;;2.97;2.00;;;13.40;55.70;;;;;;5173222;27;20486;-73
2024/04/18 12:00:34;;;;;;;2.67;1.10;;;13.30;55.70;;;;;;5211729;27;20585;-75
2024/04/18 12:03:05;;;;;;;5.20;1.87;;;13.30;53.10;;;;;;5197672;27;20570;-73
2024/04/18 12:05:31;;;;;;;5.80;2.03;;;13.20;53.10;;;;;;5224545;27;20470;-76
2024/04/18 12:07:57;;;;;;;3.20;1.77;;;13.10;53.80;;;;;;5224597;27;20230;-74
2024/04/18 12:10:30;;;;;;;4.90;1.00;;;13.00;52.20;;;;;;5164265;27;20662;-75
2024/04/18 12:13:02;;;;;;;2.60;1.30;;;12.90;52.50;;;;;;5188926;27;20704;-75
2024/04/18 12:15:29;;;;;;;2.77;1.10;;;13.10;52.90;;;;;;5235320;27;20531;-75
2024/04/18 12:17:56;;;;;;;3.72;1.30;;;13.20;53.20;;;;;;5225105;27;20370;-75
2024/04/18 12:20:23;;;;;;;1.87;1.20;;;13.30;52.90;;;;;;5198080;27;20222;-72
2024/04/18 12:22:49;;;;;;;3.17;1.30;;;13.20;52.50;;;;;;5217831;27;20470;-76
2024/04/18 12:25:16;;;;;;;3.73;1.10;;;13.30;51.50;;;;;;5198869;27;20493;-76
2024/04/18 12:27:41;;;;;;;3.17;1.10;;;13.20;51.40;;;;;;5197267;27;20275;-74
2024/04/18 12:30:27;;;;;;;2.87;1.00;;;13.30;51.40;;;;;;5205960;27;20545;-76
2024/04/18 12:33:13;;;;;;;1.70;0.90;;;13.50;51.80;;;;;;5226532;27;20508;-77
2024/04/18 12:35:38;;;;;;;3.13;1.47;;;13.70;51.60;;;;;;5198601;27;20462;-76
2024/04/18 12:38:04;;;;;;;4.10;0.90;;;13.80;51.80;;;;;;5226560;27;20281;-77
2024/04/18 12:40:41;;;;;;;3.20;1.53;;;13.90;51.10;;;;;;5252296;27;20236;-76
2024/04/18 12:43:10;;;;;;;3.53;1.60;;;13.80;50.40;;;;;;5228920;27;20470;-76
2024/04/18 12:45:52;;;;;;;4.87;1.20;;;13.80;50.90;;;;;;5215435;27;20520;-76
2024/04/18 12:48:18;;;;;;;5.40;1.43;;;13.80;49.20;;;;;;5197673;27;20470;-75
2024/04/18 12:50:53;;;;;;;1.73;1.30;;;13.90;49.40;;;;;;5202020;27;20453;-77
2024/04/18 12:53:39;;;;;;;3.00;1.00;;;13.90;48.50;;;;;;5216410;27;20464;-76
2024/04/18 12:56:05;;;;;;;3.03;1.17;;;14.10;47.50;;;;;;5232886;27;20633;-76
2024/04/18 12:58:31;;;;;;;2.07;0.83;;;14.00;46.90;;;;;;5261200;27;20251;-75
2024/04/18 13:01:05;;;;;;;2.60;1.60;;;13.90;47.70;;;;;;5231104;27;20575;-73